Time;durP1;ratioP1;P1;durP2;ratioP2;P2;SDS_P1;SDS_P2;PMS_P1;PMS_P2;Temp;Humidity;BMP_temperature;BMP_pressure;BME280_temperature;BME280_humidity;BME280_pressure;Samples;Min_cycle;Max_cycle;Signal;HPM_P1;HPM_P2
2021/12/10 15:30:05;;;;;;;;;;;6.60;99.90;;;;;;5097879;27;19938;-90
2021/12/10 15:32:36;;;;;;;;;;;6.60;99.90;;;;;;5094578;28;19917;-90
2021/12/10 15:35:12;;;;;;;;;;;6.70;99.90;;;;;;5090367;28;19916;-90
2021/12/10 15:37:38;;;;;;;;;;;6.80;99.90;;;;;;5107234;28;20345;-91
2021/12/10 15:40:08;;;;;;;;;;;6.90;99.90;;;;;;5110078;28;19912;-90
2021/12/10 15:42:35;;;;;;;;;;;7.00;99.90;;;;;;5108806;28;20288;-90
2021/12/10 15:45:06;;;;;;;;;;;7.10;99.90;;;;;;5111744;28;19964;-91
2021/12/10 15:47:34;;;;;;;;;;;7.10;99.90;;;;;;5092847;28;19924;-92
2021/12/10 15:49:59;;;;;;;;;;;7.20;99.90;;;;;;5104528;28;19912;-91
2021/12/10 15:52:25;;;;;;;;;;;7.30;99.90;;;;;;5091420;28;19908;-91
2021/12/10 15:54:54;;;;;;;;;;;7.40;99.90;;;;;;5090077;28;19912;-91
2021/12/10 15:57:25;;;;;;;;;;;7.40;99.90;;;;;;5071712;28;20043;-91
2021/12/10 15:59:57;;;;;;;;;;;7.50;99.90;;;;;;5086512;28;20011;-90
2021/12/10 16:02:22;;;;;;;;;;;7.50;99.90;;;;;;5101958;28;19990;-91
2021/12/10 16:04:50;;;;;;;;;;;7.50;99.90;;;;;;5091082;28;19963;-92
2021/12/10 16:07:21;;;;;;;;;;;7.50;99.90;;;;;;5089781;28;19919;-91
2021/12/10 16:09:47;;;;;;;;;;;7.50;99.90;;;;;;5090933;28;19908;-91
2021/12/10 16:12:14;;;;;;;;;;;7.50;99.90;;;;;;5089627;28;19912;-90
2021/12/10 16:14:40;;;;;;;;;;;7.50;99.90;;;;;;5089599;28;19915;-91
2021/12/10 16:17:08;;;;;;;;;;;7.50;99.90;;;;;;5090807;28;19908;-91
2021/12/10 16:19:33;;;;;;;;;;;7.50;99.90;;;;;;5090935;28;20004;-91
2021/12/10 16:22:18;;;;;;;;;;;7.50;99.90;;;;;;5089329;28;20333;-90
2021/12/10 16:24:49;;;;;;;;;;;7.50;99.90;;;;;;5089444;28;20284;-90
2021/12/10 16:27:28;;;;;;;;;;;7.50;99.90;;;;;;5091038;28;19909;-91
2021/12/10 16:29:59;;;;;;;;;;;7.50;99.90;;;;;;5090500;28;19955;-91
2021/12/10 16:32:26;;;;;;;;;;;7.50;99.90;;;;;;5090421;28;19982;-92
2021/12/10 16:35:12;;;;;;;;;;;7.50;99.90;;;;;;5089112;28;19912;-92
2021/12/10 16:37:40;;;;;;;;;;;7.60;99.90;;;;;;5072216;28;19958;-91
2021/12/10 16:40:12;;;;;;;;;;;7.50;99.90;;;;;;5083896;28;19934;-91
2021/12/10 16:42:42;;;;;;;;;;;7.50;99.90;;;;;;5076900;28;20357;-91
2021/12/10 16:45:08;;;;;;;;;;;7.50;99.90;;;;;;5058911;28;19958;-92
2021/12/10 16:47:39;;;;;;;;;;;7.60;99.90;;;;;;5076927;28;20339;-92
2021/12/10 16:50:05;;;;;;;;;;;7.60;99.90;;;;;;5075505;28;20285;-91
2021/12/10 16:52:32;;;;;;;;;;;7.70;99.90;;;;;;5076593;28;19913;-90
2021/12/10 16:55:00;;;;;;;;;;;7.70;99.90;;;;;;5076932;28;19916;-92
2021/12/10 16:57:27;;;;;;;;;;;7.80;99.90;;;;;;5075360;28;19908;-91
2021/12/10 16:59:55;;;;;;;;;;;7.80;99.90;;;;;;5076608;28;20357;-91
2021/12/10 17:02:22;;;;;;;;;;;7.90;99.90;;;;;;5062291;28;20415;-90
2021/12/10 17:04:52;;;;;;;;;;;8.00;99.90;;;;;;5056507;28;19913;-91
2021/12/10 17:07:19;;;;;;;;;;;8.10;99.90;;;;;;5056634;28;19916;-90
2021/12/10 17:09:46;;;;;;;;;;;8.20;99.90;;;;;;5056653;28;19915;-91
2021/12/10 17:12:17;;;;;;;;;;;8.30;99.90;;;;;;5056223;28;19919;-91
2021/12/10 17:14:48;;;;;;;;;;;8.40;99.90;;;;;;5056163;28;20285;-91
2021/12/10 17:17:16;;;;;;;;;;;8.40;99.90;;;;;;5056224;28;19909;-92
2021/12/10 17:19:43;;;;;;;;;;;8.50;99.90;;;;;;5038263;28;19979;-91
2021/12/10 17:23:43;;;;;;;;;;;8.60;99.90;;;;;;5112968;27;19918;-90
2021/12/10 17:26:11;;;;;;;;;;;8.60;99.90;;;;;;5112057;28;19912;-91
2021/12/10 17:28:42;;;;;;;;;;;8.70;99.90;;;;;;5110774;28;19908;-91
2021/12/10 17:31:13;;;;;;;;;;;8.70;99.90;;;;;;5110589;28;19998;-89
2021/12/10 17:33:45;;;;;;;;;;;8.70;99.90;;;;;;5111928;28;19986;-91
2021/12/10 17:36:12;;;;;;;;;;;8.80;99.90;;;;;;5111919;28;19908;-91
2021/12/10 17:38:39;;;;;;;;;;;8.80;99.90;;;;;;5111839;28;20289;-89
2021/12/10 17:41:09;;;;;;;;;;;8.80;99.90;;;;;;5112045;28;19912;-90
2021/12/10 17:43:35;;;;;;;;;;;8.90;99.90;;;;;;5111701;28;19922;-90
2021/12/10 19:58:23;;;;;;;;;;;7.70;99.90;;;;;;5094999;27;19919;-92
2021/12/10 20:00:54;;;;;;;;;;;7.70;99.90;;;;;;5124555;28;19912;-91
2021/12/10 20:03:24;;;;;;;;;;;7.80;99.90;;;;;;5090437;28;19956;-91
2021/12/10 20:05:49;;;;;;;;;;;7.90;99.90;;;;;;5091600;28;19954;-90
2021/12/10 20:08:18;;;;;;;;;;;8.00;99.90;;;;;;5090737;28;20280;-91
2021/12/10 20:10:50;;;;;;;;;;;8.10;99.90;;;;;;5077808;28;19909;-91
2021/12/10 20:13:20;;;;;;;;;;;8.10;99.90;;;;;;5066656;28;19912;-91
2021/12/10 20:15:56;;;;;;;;;;;8.20;99.90;;;;;;5066616;28;19917;-90
2021/12/10 20:18:24;;;;;;;;;;;8.30;99.90;;;;;;5066586;28;19970;-90
2021/12/10 20:41:19;;;;;;;;;;;8.00;99.90;;;;;;5110694;27;19916;-91
2021/12/10 20:43:50;;;;;;;;;;;7.90;99.90;;;;;;5134709;27;20003;-91
